Time;durP1;ratioP1;P1;durP2;ratioP2;P2;SDS_P1;SDS_P2;PMS_P1;PMS_P2;Temp;Humidity;BMP_temperature;BMP_pressure;BME280_temperature;BME280_humidity;BME280_pressure;Samples;Min_cycle;Max_cycle;Signal;HPM_P1;HPM_P2
2023/01/13 00:00:57;;;;;;;0.52;0.20;;;;;;;;;;4973170;28;20315;-70
2023/01/13 00:03:22;;;;;;;0.75;0.20;;;;;;;;;;4989537;28;20022;-70
2023/01/13 00:05:47;;;;;;;0.30;0.17;;;;;;;;;;4972238;28;20446;-70
2023/01/13 00:08:12;;;;;;;0.67;0.10;;;;;;;;;;4989196;28;20286;-69
2023/01/13 00:10:37;;;;;;;0.00;0.00;;;;;;;;;;4985295;28;20330;-70
2023/01/13 00:13:03;;;;;;;0.40;0.13;;;;;;;;;;4990053;28;20340;-69
2023/01/13 00:15:28;;;;;;;0.10;0.10;;;;;;;;;;4990902;28;20280;-70
2023/01/13 00:17:54;;;;;;;0.40;0.20;;;;;;;;;;4990778;28;20378;-70
2023/01/13 00:20:19;;;;;;;0.73;0.20;;;;;;;;;;4989318;28;20327;-70
2023/01/13 00:22:44;;;;;;;0.22;0.10;;;;;;;;;;4987549;28;20026;-69
2023/01/13 00:25:09;;;;;;;0.15;0.10;;;;;;;;;;4985064;28;20065;-69
2023/01/13 00:27:35;;;;;;;1.05;0.35;;;;;;;;;;4984936;28;20032;-69
2023/01/13 00:30:00;;;;;;;0.30;0.28;;;;;;;;;;4989185;28;20076;-69
2023/01/13 00:32:25;;;;;;;0.32;0.25;;;;;;;;;;4987413;28;20396;-69
2023/01/13 00:34:50;;;;;;;0.20;0.10;;;;;;;;;;4985608;28;20482;-69
2023/01/13 00:37:16;;;;;;;1.23;0.32;;;;;;;;;;4990561;28;20030;-69
2023/01/13 00:39:41;;;;;;;0.80;0.20;;;;;;;;;;4985562;28;20041;-70
2023/01/13 00:44:50;;;;;;;2.17;0.22;;;;;;;;;;4989181;28;20098;-70
2023/01/13 00:47:15;;;;;;;2.22;0.20;;;;;;;;;;4991319;28;20061;-70
2023/01/13 00:49:40;;;;;;;2.90;0.40;;;;;;;;;;4988513;28;20031;-70
2023/01/13 00:52:06;;;;;;;0.40;0.30;;;;;;;;;;4986931;28;20042;-69
2023/01/13 00:54:31;;;;;;;2.55;0.20;;;;;;;;;;4969947;28;20277;-70
2023/01/13 00:56:56;;;;;;;2.35;0.10;;;;;;;;;;4987507;28;20088;-70
2023/01/13 00:59:21;;;;;;;3.53;0.20;;;;;;;;;;4985350;28;20022;-69
2023/01/13 01:01:47;;;;;;;0.13;0.13;;;;;;;;;;4988287;28;20273;-70
2023/01/13 01:04:12;;;;;;;1.10;0.40;;;;;;;;;;4988104;28;20081;-70
2023/01/13 01:06:37;;;;;;;1.27;0.20;;;;;;;;;;4990472;28;20100;-68
2023/01/13 01:09:03;;;;;;;0.73;0.13;;;;;;;;;;4986179;28;20015;-68
2023/01/13 01:11:29;;;;;;;0.28;0.10;;;;;;;;;;4989774;28;20471;-70
2023/01/13 01:13:55;;;;;;;4.03;0.38;;;;;;;;;;4986203;28;20105;-70
2023/01/13 01:16:22;;;;;;;0.80;0.22;;;;;;;;;;4990509;28;20030;-69
2023/01/13 01:18:48;;;;;;;0.10;0.10;;;;;;;;;;4989534;28;20026;-69
2023/01/13 01:21:14;;;;;;;0.65;0.32;;;;;;;;;;4985444;28;20447;-69
2023/01/13 01:23:40;;;;;;;1.98;0.30;;;;;;;;;;4986581;28;20029;-70
2023/01/13 01:26:06;;;;;;;0.45;0.25;;;;;;;;;;4986375;28;20022;-70
2023/01/13 01:28:32;;;;;;;2.63;0.45;;;;;;;;;;4969247;28;20034;-70
2023/01/13 01:30:58;;;;;;;2.15;0.22;;;;;;;;;;4988498;28;20030;-70
2023/01/13 01:33:23;;;;;;;4.10;0.50;;;;;;;;;;4986190;28;20527;-69
2023/01/13 01:35:49;;;;;;;1.48;0.50;;;;;;;;;;4986971;28;20084;-68
2023/01/13 01:38:14;;;;;;;1.77;0.30;;;;;;;;;;4989583;28;20058;-68
2023/01/13 01:40:39;;;;;;;3.63;0.80;;;;;;;;;;4987279;28;20317;-68
2023/01/13 01:46:12;;;;;;;4.63;0.57;;;;;;;;;;4941030;28;20285;-68
2023/01/13 01:48:40;;;;;;;1.00;0.37;;;;;;;;;;4980105;28;20038;-68
2023/01/13 01:51:08;;;;;;;0.43;0.20;;;;;;;;;;4980836;28;20279;-68
2023/01/13 01:53:33;;;;;;;3.13;0.63;;;;;;;;;;4978536;28;20022;-68
2023/01/13 01:55:59;;;;;;;7.50;1.25;;;;;;;;;;4984580;28;20041;-68
2023/01/13 01:58:27;;;;;;;2.42;0.20;;;;;;;;;;4989834;28;20270;-68
2023/01/13 02:00:52;;;;;;;4.20;0.75;;;;;;;;;;4980897;28;20275;-68
2023/01/13 02:03:18;;;;;;;4.67;0.33;;;;;;;;;;4985756;28;20026;-68
2023/01/13 02:05:43;;;;;;;3.90;0.45;;;;;;;;;;4988060;28;20782;-68
2023/01/13 02:08:09;;;;;;;3.23;0.20;;;;;;;;;;4988070;28;20022;-68
2023/01/13 02:10:35;;;;;;;2.28;0.45;;;;;;;;;;4987492;28;20297;-69
2023/01/13 02:13:02;;;;;;;4.75;0.50;;;;;;;;;;4969393;28;20058;-70
2023/01/13 02:15:41;;;;;;;4.75;0.52;;;;;;;;;;4986973;28;20022;-69
2023/01/13 02:18:23;;;;;;;0.73;0.28;;;;;;;;;;4986838;28;20394;-70
2023/01/13 02:20:55;;;;;;;4.82;0.40;;;;;;;;;;4981446;28;20037;-70
2023/01/13 02:26:41;;;;;;;4.65;0.50;;;;;;;;;;4981626;28;20116;-70
2023/01/13 02:31:57;;;;;;;1.25;0.20;;;;;;;;;;4983360;28;20037;-70
2023/01/13 02:34:34;;;;;;;0.93;0.30;;;;;;;;;;4987559;28;20464;-69
2023/01/13 02:37:09;;;;;;;6.00;0.40;;;;;;;;;;4979304;28;20061;-70
2023/01/13 02:40:12;;;;;;;1.77;0.47;;;;;;;;;;4987155;28;20072;-69
2023/01/13 02:45:37;;;;;;;0.10;0.05;;;;;;;;;;4879604;29;20111;-70
2023/01/13 02:48:03;;;;;;;1.55;0.70;;;;;;;;;;4954850;28;20398;-69
2023/01/13 02:50:36;;;;;;;1.52;0.20;;;;;;;;;;4982226;28;20114;-70
2023/01/13 02:53:04;;;;;;;1.17;0.20;;;;;;;;;;4984667;28;20026;-69
2023/01/13 02:55:33;;;;;;;1.58;0.30;;;;;;;;;;4986305;28;20025;-70
2023/01/13 02:57:58;;;;;;;2.72;0.70;;;;;;;;;;4986348;28;20026;-70
2023/01/13 03:00:25;;;;;;;1.08;0.32;;;;;;;;;;4987558;28;20041;-69
2023/01/13 03:02:51;;;;;;;2.78;0.40;;;;;;;;;;4981360;28;20021;-69
2023/01/13 03:05:16;;;;;;;2.72;0.28;;;;;;;;;;4967132;28;20023;-70
2023/01/13 03:07:41;;;;;;;1.65;0.50;;;;;;;;;;4984656;28;20030;-69
2023/01/13 03:10:15;;;;;;;3.97;0.35;;;;;;;;;;4991110;28;20064;-70
2023/01/13 03:13:03;;;;;;;1.13;0.45;;;;;;;;;;4987148;28;20314;-69
2023/01/13 03:15:39;;;;;;;4.75;0.50;;;;;;;;;;4975226;28;20042;-69
2023/01/13 03:18:33;;;;;;;3.38;0.30;;;;;;;;;;4984231;28;20018;-69
2023/01/13 03:21:04;;;;;;;5.60;1.10;;;;;;;;;;4969950;28;20042;-69
2023/01/13 03:23:34;;;;;;;5.75;1.02;;;;;;;;;;4987723;28;20486;-68
2023/01/13 03:26:02;;;;;;;2.78;0.65;;;;;;;;;;4987274;28;20396;-68
2023/01/13 03:28:33;;;;;;;3.28;0.55;;;;;;;;;;4984458;28;20035;-68
2023/01/13 03:31:02;;;;;;;3.00;0.60;;;;;;;;;;4985760;28;20381;-68
2023/01/13 03:33:29;;;;;;;2.08;0.40;;;;;;;;;;4982353;28;20475;-68
2023/01/13 03:35:57;;;;;;;7.75;0.77;;;;;;;;;;4980693;28;20018;-69
2023/01/13 03:38:27;;;;;;;11.10;1.10;;;;;;;;;;4967960;28;20352;-68
2023/01/13 03:40:54;;;;;;;2.43;0.70;;;;;;;;;;4963360;28;20040;-68
2023/01/13 03:46:46;;;;;;;12.02;1.00;;;;;;;;;;4933010;28;20518;-68
2023/01/13 03:49:15;;;;;;;9.18;0.80;;;;;;;;;;4979215;28;20042;-68
2023/01/13 03:51:42;;;;;;;7.97;0.88;;;;;;;;;;4980944;28;20027;-68
2023/01/13 03:54:10;;;;;;;3.30;0.88;;;;;;;;;;4985106;28;20033;-68
2023/01/13 03:56:37;;;;;;;8.65;1.08;;;;;;;;;;4982856;28;20467;-68
2023/01/13 03:59:05;;;;;;;10.07;2.28;;;;;;;;;;4980226;28;20041;-68
2023/01/13 04:01:34;;;;;;;12.05;1.40;;;;;;;;;;4974787;28;20483;-69
2023/01/13 04:04:02;;;;;;;10.63;1.33;;;;;;;;;;4974703;28;20026;-69
2023/01/13 04:06:30;;;;;;;11.05;2.13;;;;;;;;;;4979378;28;20098;-69
2023/01/13 04:08:58;;;;;;;11.20;1.23;;;;;;;;;;4983435;28;20442;-69
2023/01/13 04:11:29;;;;;;;16.98;2.05;;;;;;;;;;4978772;28;20487;-69
2023/01/13 04:13:54;;;;;;;10.45;2.00;;;;;;;;;;4981008;28;20027;-70
2023/01/13 04:16:20;;;;;;;4.20;0.55;;;;;;;;;;4980931;28;20039;-69
2023/01/13 04:18:48;;;;;;;13.27;1.58;;;;;;;;;;4990190;28;20471;-69
2023/01/13 04:21:13;;;;;;;5.68;1.25;;;;;;;;;;4982024;28;20419;-69
2023/01/13 04:23:38;;;;;;;17.63;1.73;;;;;;;;;;4981439;28;20026;-70
2023/01/13 04:26:04;;;;;;;14.23;2.03;;;;;;;;;;4990905;28;20281;-69
2023/01/13 04:28:29;;;;;;;17.25;2.17;;;;;;;;;;4983853;28;20054;-69
2023/01/13 04:30:54;;;;;;;11.13;1.20;;;;;;;;;;4979326;28;20061;-68
2023/01/13 04:33:19;;;;;;;15.98;2.10;;;;;;;;;;4982918;28;20031;-69
2023/01/13 04:35:45;;;;;;;19.92;2.60;;;;;;;;;;4986756;28;20026;-68
2023/01/13 04:38:11;;;;;;;11.52;1.52;;;;;;;;;;4981693;28;20495;-69
2023/01/13 04:40:37;;;;;;;14.23;1.58;;;;;;;;;;4987994;28;20028;-68
2023/01/13 04:43:02;;;;;;;20.23;3.30;;;;;;;;;;4984043;28;20109;-69
2023/01/13 04:45:27;;;;;;;17.70;1.95;;;;;;;;;;4986147;28;20026;-68
2023/01/13 04:47:52;;;;;;;16.93;2.10;;;;;;;;;;4981503;28;20427;-69
2023/01/13 04:50:21;;;;;;;15.97;1.73;;;;;;;;;;4976684;28;20282;-69
2023/01/13 04:52:47;;;;;;;16.73;2.03;;;;;;;;;;4975051;28;20290;-69
2023/01/13 04:55:12;;;;;;;22.20;2.08;;;;;;;;;;4986425;28;20029;-70
2023/01/13 04:57:37;;;;;;;29.02;3.22;;;;;;;;;;4986066;28;20022;-69
2023/01/13 05:00:04;;;;;;;10.30;2.30;;;;;;;;;;4984329;28;20019;-69
2023/01/13 05:02:29;;;;;;;15.30;2.08;;;;;;;;;;4986524;28;20030;-67
2023/01/13 05:04:54;;;;;;;14.83;2.10;;;;;;;;;;4982255;28;20479;-68
2023/01/13 05:07:20;;;;;;;18.63;4.20;;;;;;;;;;4983828;28;20592;-68
2023/01/13 05:09:45;;;;;;;8.40;1.10;;;;;;;;;;4985252;28;20638;-68
2023/01/13 05:17:51;;;;;;;21.17;3.03;;;;;;;;;;4941647;28;20061;-68
2023/01/13 05:20:17;;;;;;;18.85;3.10;;;;;;;;;;4981878;28;20050;-68
2023/01/13 05:25:27;;;;;;;15.93;3.00;;;;;;;;;;4980614;28;20033;-68
2023/01/13 05:27:55;;;;;;;13.40;2.70;;;;;;;;;;4981314;28;20026;-68
2023/01/13 05:30:22;;;;;;;13.15;2.15;;;;;;;;;;4985345;28;20443;-68
2023/01/13 05:32:47;;;;;;;12.63;1.77;;;;;;;;;;4984843;28;20029;-68
2023/01/13 05:35:12;;;;;;;21.65;2.28;;;;;;;;;;4985923;28;20026;-68
2023/01/13 05:37:38;;;;;;;10.32;1.33;;;;;;;;;;4982447;28;20030;-68
2023/01/13 05:45:31;;;;;;;27.08;3.30;;;;;;;;;;4979513;28;20068;-68
2023/01/13 05:47:57;;;;;;;19.83;2.00;;;;;;;;;;4978349;28;20054;-68
2023/01/13 05:50:22;;;;;;;12.35;1.55;;;;;;;;;;4983840;28;20108;-68
2023/01/13 05:52:47;;;;;;;18.63;2.10;;;;;;;;;;4984067;28;20439;-68
2023/01/13 05:55:13;;;;;;;13.20;2.05;;;;;;;;;;4980776;28;20040;-68
2023/01/13 05:57:38;;;;;;;12.63;0.93;;;;;;;;;;4983115;28;20010;-68
2023/01/13 06:00:04;;;;;;;7.15;2.28;;;;;;;;;;4980341;28;20037;-69
2023/01/13 06:02:29;;;;;;;10.50;1.38;;;;;;;;;;4972624;28;20037;-68
2023/01/13 06:04:54;;;;;;;16.70;1.98;;;;;;;;;;4983739;28;20026;-69
2023/01/13 06:07:20;;;;;;;12.03;1.97;;;;;;;;;;4977042;28;20046;-67
2023/01/13 06:09:45;;;;;;;7.23;1.77;;;;;;;;;;4981563;28;20278;-68
2023/01/13 06:12:11;;;;;;;5.60;0.77;;;;;;;;;;4974315;28;20293;-68
2023/01/13 06:14:39;;;;;;;7.57;1.15;;;;;;;;;;4972347;28;20078;-68
2023/01/13 06:17:14;;;;;;;9.93;1.55;;;;;;;;;;4988149;28;20018;-68
2023/01/13 06:19:40;;;;;;;8.77;0.98;;;;;;;;;;4973360;28;20476;-68
2023/01/13 06:22:15;;;;;;;6.78;1.23;;;;;;;;;;4981423;28;20063;-68
2023/01/13 06:24:40;;;;;;;5.28;1.23;;;;;;;;;;4976543;28;20334;-68
2023/01/13 06:27:07;;;;;;;6.13;0.98;;;;;;;;;;4982909;28;20101;-68
2023/01/13 06:29:32;;;;;;;10.30;1.42;;;;;;;;;;4972113;28;20010;-68
2023/01/13 06:31:58;;;;;;;14.90;1.55;;;;;;;;;;4982835;28;20395;-68
2023/01/13 06:34:24;;;;;;;5.93;1.38;;;;;;;;;;4983161;28;20022;-68
2023/01/13 06:36:52;;;;;;;5.15;0.75;;;;;;;;;;4969419;28;20023;-68
2023/01/13 06:39:18;;;;;;;10.93;1.50;;;;;;;;;;4974204;28;20454;-68
2023/01/13 06:44:28;;;;;;;7.28;1.23;;;;;;;;;;4978342;28;20399;-68
2023/01/13 06:46:53;;;;;;;15.93;2.72;;;;;;;;;;4984645;28;20022;-68
2023/01/13 06:49:18;;;;;;;8.37;2.00;;;;;;;;;;4974917;28;20046;-68
2023/01/13 06:51:43;;;;;;;7.13;1.30;;;;;;;;;;4981214;28;20338;-69
2023/01/13 06:54:09;;;;;;;9.95;2.65;;;;;;;;;;4970633;28;20104;-70
2023/01/13 06:56:34;;;;;;;10.18;1.55;;;;;;;;;;4981359;28;20084;-69
2023/01/13 06:58:59;;;;;;;11.23;1.80;;;;;;;;;;4984277;28;20022;-69
2023/01/13 07:01:24;;;;;;;4.57;0.83;;;;;;;;;;4961482;28;21063;-68
2023/01/13 07:03:49;;;;;;;4.80;0.90;;;;;;;;;;4981503;28;20286;-69
2023/01/13 07:06:14;;;;;;;11.97;1.20;;;;;;;;;;4973082;28;20030;-69
2023/01/13 07:08:40;;;;;;;7.87;1.27;;;;;;;;;;4972863;28;20403;-68
2023/01/13 07:11:05;;;;;;;13.17;4.40;;;;;;;;;;4974242;28;20290;-69
2023/01/13 07:16:14;;;;;;;24.65;8.40;;;;;;;;;;4968362;28;20029;-70
2023/01/13 07:18:40;;;;;;;7.80;2.20;;;;;;;;;;4982442;28;20034;-68
2023/01/13 07:21:06;;;;;;;9.37;1.57;;;;;;;;;;4983326;28;20292;-70
2023/01/13 07:23:35;;;;;;;4.95;1.15;;;;;;;;;;4981551;28;20372;-68
2023/01/13 07:26:00;;;;;;;16.38;1.80;;;;;;;;;;4986138;28;20096;-68
2023/01/13 07:28:27;;;;;;;10.90;1.58;;;;;;;;;;4978439;28;20539;-68
2023/01/13 07:30:52;;;;;;;7.82;0.70;;;;;;;;;;4980938;28;20475;-68
2023/01/13 07:33:17;;;;;;;12.82;1.30;;;;;;;;;;4979799;28;20091;-68
2023/01/13 07:35:46;;;;;;;15.10;1.25;;;;;;;;;;4983838;28;20525;-68
2023/01/13 07:38:11;;;;;;;7.85;1.15;;;;;;;;;;4976794;28;20354;-68
2023/01/13 07:40:38;;;;;;;9.30;1.17;;;;;;;;;;4981642;28;20021;-69
2023/01/13 07:45:47;;;;;;;9.32;1.20;;;;;;;;;;4983977;28;20030;-68
2023/01/13 07:48:12;;;;;;;6.70;1.08;;;;;;;;;;4987161;28;20026;-69
2023/01/13 07:50:37;;;;;;;5.37;1.00;;;;;;;;;;4989008;28;20404;-69
2023/01/13 07:53:03;;;;;;;10.88;1.58;;;;;;;;;;4983759;28;20380;-69
2023/01/13 07:55:28;;;;;;;6.85;1.65;;;;;;;;;;4985760;28;20026;-69
2023/01/13 07:57:53;;;;;;;6.90;0.73;;;;;;;;;;4983100;28;20101;-69
2023/01/13 08:00:18;;;;;;;10.40;0.77;;;;;;;;;;4985061;28;20301;-69
2023/01/13 08:02:44;;;;;;;3.88;0.75;;;;;;;;;;4992003;28;20331;-69
2023/01/13 08:05:09;;;;;;;6.07;0.83;;;;;;;;;;4984827;28;20018;-69
2023/01/13 08:07:34;;;;;;;5.63;1.23;;;;;;;;;;4980122;28;20270;-69
2023/01/13 08:09:59;;;;;;;6.43;1.17;;;;;;;;;;4982225;28;20030;-69
2023/01/13 08:15:09;;;;;;;3.72;1.08;;;;;;;;;;4989149;28;20613;-69
2023/01/13 08:17:34;;;;;;;13.52;1.42;;;;;;;;;;4984558;28;20022;-69
2023/01/13 08:19:59;;;;;;;9.48;1.30;;;;;;;;;;4987365;28;20106;-69
2023/01/13 08:22:24;;;;;;;3.93;0.83;;;;;;;;;;4984172;28;20022;-69
2023/01/13 08:24:49;;;;;;;7.07;1.52;;;;;;;;;;4984277;28;20289;-68
2023/01/13 08:27:15;;;;;;;9.00;0.88;;;;;;;;;;4980698;28;20435;-68
2023/01/13 08:29:40;;;;;;;7.32;1.40;;;;;;;;;;4983386;28;20026;-68
2023/01/13 08:32:05;;;;;;;12.90;1.33;;;;;;;;;;4984408;28;20101;-69
2023/01/13 08:34:30;;;;;;;10.18;1.27;;;;;;;;;;4982712;28;20302;-69
2023/01/13 08:36:55;;;;;;;5.30;1.13;;;;;;;;;;4987662;28;20113;-69
2023/01/13 08:39:22;;;;;;;8.15;1.77;;;;;;;;;;4985931;28;20743;-68
2023/01/13 08:41:57;;;;;;;11.93;2.40;;;;;;;;;;4988391;28;20105;-68
2023/01/13 08:44:23;;;;;;;7.53;1.80;;;;;;;;;;4990260;28;20022;-69
2023/01/13 08:46:48;;;;;;;6.22;1.25;;;;;;;;;;4983994;28;20108;-69
2023/01/13 08:49:14;;;;;;;11.68;1.70;;;;;;;;;;4987217;28;20620;-68
2023/01/13 08:51:39;;;;;;;17.52;2.13;;;;;;;;;;4986159;28;20022;-68
2023/01/13 08:54:04;;;;;;;19.60;2.77;;;;;;;;;;4983709;28;20415;-69
2023/01/13 08:56:30;;;;;;;6.07;1.07;;;;;;;;;;4979395;28;20270;-67
2023/01/13 08:58:58;;;;;;;9.90;1.70;;;;;;;;;;4985327;28;20269;-67
2023/01/13 09:01:23;;;;;;;13.48;2.47;;;;;;;;;;4987341;28;20022;-67
2023/01/13 09:03:49;;;;;;;10.38;1.65;;;;;;;;;;4988059;28;20057;-67
2023/01/13 09:06:14;;;;;;;11.55;2.38;;;;;;;;;;4981883;28;20510;-67
2023/01/13 09:08:39;;;;;;;31.13;2.20;;;;;;;;;;4983393;28;20412;-67
2023/01/13 09:13:10;;;;;;;19.25;1.88;;;;;;;;;;4986753;28;20407;-67
2023/01/13 09:13:50;;;;;;;6.50;1.92;;;;;;;;;;4986633;28;20054;-68
2023/01/13 09:16:15;;;;;;;6.68;1.70;;;;;;;;;;4985828;28;20101;-67
2023/01/13 09:18:41;;;;;;;24.90;2.03;;;;;;;;;;4985876;28;20160;-67
2023/01/13 09:21:08;;;;;;;4.13;1.60;;;;;;;;;;4982015;28;20034;-67
2023/01/13 09:23:33;;;;;;;12.23;2.30;;;;;;;;;;4986906;28;20285;-67
2023/01/13 09:25:58;;;;;;;9.07;1.53;;;;;;;;;;4986307;28;20027;-67
2023/01/13 09:28:23;;;;;;;10.93;1.42;;;;;;;;;;4982937;28;20701;-67
2023/01/13 09:30:48;;;;;;;13.70;2.93;;;;;;;;;;4983412;28;20050;-67
2023/01/13 09:35:59;;;;;;;16.25;3.10;;;;;;;;;;4982619;28;20965;-67
2023/01/13 09:38:24;;;;;;;20.25;2.58;;;;;;;;;;4976862;28;20102;-67
2023/01/13 09:40:49;;;;;;;13.95;2.08;;;;;;;;;;4986805;28;20089;-67
2023/01/13 09:43:53;;;;;;;24.97;3.30;;;;;;;;;;4988785;28;20037;-68
2023/01/13 09:49:08;;;;;;;11.45;2.88;;;;;;;;;;4988394;28;20113;-67
2023/01/13 09:51:37;;;;;;;15.68;2.50;;;;;;;;;;4987987;28;20037;-67
2023/01/13 09:54:09;;;;;;;21.52;3.50;;;;;;;;;;4985018;28;20484;-68
2023/01/13 09:56:35;;;;;;;7.70;1.67;;;;;;;;;;4977553;28;20027;-69
2023/01/13 09:59:00;;;;;;;17.27;2.57;;;;;;;;;;4984456;28;20455;-69
2023/01/13 10:01:31;;;;;;;26.40;3.00;;;;;;;;;;4982099;28;20360;-67
2023/01/13 10:04:01;;;;;;;21.42;2.03;;;;;;;;;;4985373;28;20382;-68
2023/01/13 10:06:32;;;;;;;17.27;1.50;;;;;;;;;;4985171;28;20026;-67
2023/01/13 10:08:57;;;;;;;16.95;2.25;;;;;;;;;;4985409;28;20030;-67
2023/01/13 10:14:18;;;;;;;23.13;2.28;;;;;;;;;;4983033;28;20034;-67
2023/01/13 10:16:47;;;;;;;11.98;1.85;;;;;;;;;;4978233;28;20026;-67
2023/01/13 10:19:25;;;;;;;15.20;2.35;;;;;;;;;;4983021;28;20039;-67
2023/01/13 10:22:08;;;;;;;15.25;2.67;;;;;;;;;;4986945;28;20018;-69
2023/01/13 10:24:49;;;;;;;14.93;2.85;;;;;;;;;;4983041;28;20060;-68
2023/01/13 10:27:26;;;;;;;11.70;2.63;;;;;;;;;;4984218;28;20407;-68
2023/01/13 10:29:51;;;;;;;18.17;1.98;;;;;;;;;;4984234;28;20078;-68
2023/01/13 10:32:16;;;;;;;21.10;2.53;;;;;;;;;;4985815;28;20034;-67
2023/01/13 10:34:49;;;;;;;9.37;2.13;;;;;;;;;;4981618;28;20777;-67
2023/01/13 10:37:22;;;;;;;5.03;0.93;;;;;;;;;;4985948;28;20828;-68
2023/01/13 10:39:48;;;;;;;23.83;3.45;;;;;;;;;;4982385;28;20030;-68
2023/01/13 10:42:14;;;;;;;20.52;2.03;;;;;;;;;;4982885;28;20534;-67
2023/01/13 10:45:06;;;;;;;18.38;3.13;;;;;;;;;;4989042;28;20018;-67
2023/01/13 10:47:33;;;;;;;19.83;2.63;;;;;;;;;;4979418;28;20042;-67
2023/01/13 10:50:01;;;;;;;20.55;2.28;;;;;;;;;;4983249;28;20063;-69
2023/01/13 10:52:28;;;;;;;27.40;3.13;;;;;;;;;;4984399;28;20014;-68
2023/01/13 10:54:53;;;;;;;8.48;2.10;;;;;;;;;;4982676;28;20022;-66
2023/01/13 10:57:21;;;;;;;21.52;3.30;;;;;;;;;;4981937;28;20491;-67
2023/01/13 10:59:47;;;;;;;28.60;3.25;;;;;;;;;;4984152;28;20032;-67
2023/01/13 11:02:15;;;;;;;28.48;4.28;;;;;;;;;;4987634;28;20030;-67
2023/01/13 11:04:42;;;;;;;20.67;3.42;;;;;;;;;;4984626;28;20106;-67
2023/01/13 11:07:30;;;;;;;28.58;5.45;;;;;;;;;;4983926;28;20037;-68
2023/01/13 11:10:08;;;;;;;16.80;3.40;;;;;;;;;;4976648;28;20100;-68
2023/01/13 11:12:34;;;;;;;23.27;4.65;;;;;;;;;;4981953;28;20105;-67
2023/01/13 11:15:01;;;;;;;20.75;2.88;;;;;;;;;;4983553;28;20010;-68
2023/01/13 11:17:32;;;;;;;22.25;3.80;;;;;;;;;;4979131;28;20073;-68
2023/01/13 11:20:10;;;;;;;20.85;3.65;;;;;;;;;;4981060;28;20025;-67
2023/01/13 11:22:48;;;;;;;34.63;4.45;;;;;;;;;;4986417;28;20503;-67
2023/01/13 11:25:41;;;;;;;21.13;3.17;;;;;;;;;;4982487;28;20483;-68
2023/01/13 11:28:15;;;;;;;15.18;2.95;;;;;;;;;;4985505;28;20491;-68
2023/01/13 11:30:59;;;;;;;27.70;4.90;;;;;;;;;;4980341;28;20019;-68
2023/01/13 11:33:36;;;;;;;20.85;3.15;;;;;;;;;;4984984;28;20041;-68
2023/01/13 11:36:04;;;;;;;16.10;2.63;;;;;;;;;;4986915;28;20018;-68
2023/01/13 11:38:37;;;;;;;12.30;1.85;;;;;;;;;;4983421;28;20110;-67
2023/01/13 11:41:22;;;;;;;7.97;1.05;;;;;;;;;;4978862;28;20487;-67
2023/01/13 11:44:03;;;;;;;33.95;4.88;;;;;;;;;;4972234;28;20074;-67
2023/01/13 11:46:28;;;;;;;22.90;2.92;;;;;;;;;;4983760;28;20148;-67
2023/01/13 11:48:55;;;;;;;22.88;4.13;;;;;;;;;;4976703;28;20113;-67
2023/01/13 11:51:26;;;;;;;17.40;2.60;;;;;;;;;;4981787;28;20623;-67
2023/01/13 11:54:04;;;;;;;29.20;2.85;;;;;;;;;;4982830;28;20022;-67
2023/01/13 11:56:46;;;;;;;17.23;2.17;;;;;;;;;;4983769;28;20408;-68
2023/01/13 11:59:17;;;;;;;10.05;2.58;;;;;;;;;;4986179;28;20030;-68
2023/01/13 12:01:42;;;;;;;34.95;4.35;;;;;;;;;;4981386;28;20113;-67
2023/01/13 12:04:23;;;;;;;18.77;2.13;;;;;;;;;;4983877;28;20101;-68
2023/01/13 12:07:00;;;;;;;20.08;2.35;;;;;;;;;;4983287;28;20658;-68
2023/01/13 12:09:28;;;;;;;13.82;2.05;;;;;;;;;;4982109;28;20026;-68
2023/01/13 12:14:49;;;;;;;13.15;2.42;;;;;;;;;;4982335;28;20041;-68
2023/01/13 12:17:35;;;;;;;12.32;2.65;;;;;;;;;;4981190;28;20054;-68
2023/01/13 12:20:11;;;;;;;20.17;2.78;;;;;;;;;;4981714;28;20019;-68
2023/01/13 12:22:36;;;;;;;16.40;3.03;;;;;;;;;;4984871;28;20030;-68
2023/01/13 12:25:11;;;;;;;18.05;2.53;;;;;;;;;;4981415;28;20037;-68
2023/01/13 12:28:03;;;;;;;18.95;2.65;;;;;;;;;;4982880;28;20208;-67
2023/01/13 12:30:47;;;;;;;17.65;2.20;;;;;;;;;;4977192;28;20034;-67
2023/01/13 12:33:18;;;;;;;18.58;2.42;;;;;;;;;;4984662;28;20034;-68
2023/01/13 12:36:16;;;;;;;12.98;2.65;;;;;;;;;;4981600;28;20034;-68
2023/01/13 12:38:49;;;;;;;15.52;2.40;;;;;;;;;;4937536;28;20048;-68
2023/01/13 12:41:28;;;;;;;13.13;1.98;;;;;;;;;;4970948;28;20062;-68
2023/01/13 12:46:57;;;;;;;15.10;1.45;;;;;;;;;;4987218;28;20228;-68
2023/01/13 12:49:32;;;;;;;14.30;1.83;;;;;;;;;;4982218;28;20041;-69
2023/01/13 12:52:09;;;;;;;15.63;2.17;;;;;;;;;;4988095;28;20041;-68
2023/01/13 12:54:43;;;;;;;9.05;1.25;;;;;;;;;;4986437;28;20029;-67
2023/01/13 12:57:14;;;;;;;17.77;3.38;;;;;;;;;;4988815;28;20065;-67
2023/01/13 12:59:40;;;;;;;19.05;2.38;;;;;;;;;;4985776;28;20030;-67
2023/01/13 13:02:11;;;;;;;14.77;3.38;;;;;;;;;;4986702;28;20018;-67
2023/01/13 13:04:48;;;;;;;11.15;2.38;;;;;;;;;;4986686;28;20026;-68
2023/01/13 13:07:46;;;;;;;20.98;3.40;;;;;;;;;;4988661;28;20022;-68
2023/01/13 13:10:11;;;;;;;19.88;3.05;;;;;;;;;;4922578;28;20047;-68
2023/01/13 13:15:24;;;;;;;13.30;2.40;;;;;;;;;;4979270;28;20037;-67
2023/01/13 13:17:58;;;;;;;18.10;2.95;;;;;;;;;;4986718;28;20090;-68
2023/01/13 13:20:42;;;;;;;13.27;2.50;;;;;;;;;;4981252;28;20113;-68
2023/01/13 13:23:25;;;;;;;13.93;2.50;;;;;;;;;;4986073;28;20026;-68
2023/01/13 13:26:14;;;;;;;18.40;1.83;;;;;;;;;;4983538;28;20468;-68
2023/01/13 13:28:45;;;;;;;12.88;2.13;;;;;;;;;;4984566;28;20026;-67
2023/01/13 13:31:25;;;;;;;19.60;2.78;;;;;;;;;;4983953;28;20026;-67
2023/01/13 13:33:50;;;;;;;;;;;;;;;;;;4983684;28;20026;-68
2023/01/13 13:36:28;;;;;;;19.75;2.08;;;;;;;;;;4986062;28;19982;-68
2023/01/13 13:47:17;;;;;;;16.75;1.95;;;;;;;;;;4982252;28;20042;-66
2023/01/13 13:49:45;;;;;;;6.60;1.23;;;;;;;;;;4976885;28;20034;-67
2023/01/13 13:52:24;;;;;;;11.93;1.88;;;;;;;;;;4984607;28;20290;-68
2023/01/13 13:54:51;;;;;;;1.63;0.77;;;;;;;;;;4986354;28;20015;-68
2023/01/13 13:57:18;;;;;;;7.97;1.42;;;;;;;;;;4983960;28;20026;-68
2023/01/13 13:59:43;;;;;;;5.30;1.25;;;;;;;;;;4988731;28;20069;-68
2023/01/13 14:02:16;;;;;;;11.85;1.50;;;;;;;;;;4985175;28;20726;-68
2023/01/13 14:04:41;;;;;;;16.95;1.80;;;;;;;;;;4986300;28;20026;-68
2023/01/13 14:07:19;;;;;;;11.73;2.53;;;;;;;;;;4986828;28;20494;-68
2023/01/13 14:09:45;;;;;;;15.82;2.88;;;;;;;;;;4985925;28;20025;-67
2023/01/13 14:12:18;;;;;;;15.82;3.72;;;;;;;;;;4985780;28;20399;-66
2023/01/13 14:14:44;;;;;;;22.38;2.80;;;;;;;;;;4987234;28;20501;-67
2023/01/13 14:17:29;;;;;;;11.30;2.17;;;;;;;;;;4969556;28;20056;-68
2023/01/13 14:20:03;;;;;;;20.65;3.17;;;;;;;;;;4984871;28;20065;-68
2023/01/13 14:22:29;;;;;;;19.55;3.40;;;;;;;;;;4988221;28;20048;-68
2023/01/13 14:24:56;;;;;;;21.55;2.47;;;;;;;;;;4985510;28;20531;-66
2023/01/13 14:27:22;;;;;;;13.23;2.13;;;;;;;;;;4986937;28;20022;-67
2023/01/13 14:29:48;;;;;;;18.92;2.45;;;;;;;;;;4959455;28;20282;-67
2023/01/13 14:32:16;;;;;;;18.52;2.95;;;;;;;;;;4982230;28;20076;-67
2023/01/13 14:34:41;;;;;;;14.45;2.42;;;;;;;;;;4985762;28;20027;-68
2023/01/13 14:37:23;;;;;;;22.17;2.73;;;;;;;;;;4985709;28;20029;-68
2023/01/13 14:39:49;;;;;;;14.35;2.10;;;;;;;;;;4983413;28;20276;-68
2023/01/13 14:42:15;;;;;;;20.67;2.30;;;;;;;;;;4985024;28;20383;-68
2023/01/13 14:44:44;;;;;;;18.25;2.20;;;;;;;;;;4984670;28;20968;-68
2023/01/13 14:47:18;;;;;;;28.70;3.10;;;;;;;;;;4987670;28;20032;-68
2023/01/13 14:49:57;;;;;;;12.00;2.35;;;;;;;;;;4985279;28;20038;-68
2023/01/13 14:52:24;;;;;;;26.50;2.60;;;;;;;;;;4986698;28;20030;-68
2023/01/13 14:54:53;;;;;;;16.90;3.42;;;;;;;;;;4984887;28;20026;-68
2023/01/13 14:57:30;;;;;;;22.98;3.85;;;;;;;;;;4981288;28;20129;-68
2023/01/13 14:59:58;;;;;;;15.98;1.92;;;;;;;;;;4983400;28;20026;-68
2023/01/13 15:02:29;;;;;;;24.45;3.15;;;;;;;;;;4986437;28;20081;-68
2023/01/13 15:04:57;;;;;;;10.07;1.58;;;;;;;;;;4982585;28;20530;-68
2023/01/13 15:07:30;;;;;;;6.55;1.48;;;;;;;;;;4968293;28;20395;-68
2023/01/13 15:09:59;;;;;;;6.18;1.40;;;;;;;;;;4981358;28;20018;-68
2023/01/13 15:12:34;;;;;;;28.98;1.85;;;;;;;;;;4989789;28;20096;-68
2023/01/13 15:15:01;;;;;;;20.15;2.28;;;;;;;;;;4985545;28;20097;-68
2023/01/13 15:17:26;;;;;;;15.05;2.08;;;;;;;;;;4988817;28;20081;-68
2023/01/13 15:19:52;;;;;;;18.60;2.43;;;;;;;;;;4983335;28;20034;-68
2023/01/13 15:22:17;;;;;;;20.63;2.60;;;;;;;;;;4985321;28;20285;-68
2023/01/13 15:24:42;;;;;;;16.27;2.60;;;;;;;;;;4984631;28;20038;-68
2023/01/13 15:27:15;;;;;;;18.67;3.27;;;;;;;;;;4986239;28;20018;-68
2023/01/13 15:29:40;;;;;;;29.65;2.88;;;;;;;;;;4985218;28;20354;-68
2023/01/13 15:32:08;;;;;;;23.55;3.22;;;;;;;;;;4984270;28;20057;-67
2023/01/13 15:34:33;;;;;;;15.32;2.40;;;;;;;;;;4983902;28;20438;-68
2023/01/13 15:36:59;;;;;;;31.07;4.60;;;;;;;;;;4985827;28;20029;-68
2023/01/13 15:39:24;;;;;;;20.80;3.23;;;;;;;;;;4987614;28;20284;-69
2023/01/13 15:47:17;;;;;;;17.23;4.63;;;;;;;;;;4985146;28;20406;-68
2023/01/13 15:49:43;;;;;;;22.30;4.13;;;;;;;;;;4987905;28;20026;-68
2023/01/13 15:52:21;;;;;;;8.27;1.90;;;;;;;;;;4985156;28;20065;-68
2023/01/13 15:54:47;;;;;;;35.35;6.55;;;;;;;;;;4987003;28;20101;-68
2023/01/13 15:57:25;;;;;;;20.25;4.03;;;;;;;;;;4990060;28;20443;-68
2023/01/13 15:59:52;;;;;;;17.05;2.90;;;;;;;;;;4984997;28;20015;-68